createdAt,value
2023-11-01T00:00:16.201Z,9.57
2023-11-01T00:05:18.204Z,9.63
2023-11-01T00:10:20.157Z,9.70
2023-11-01T00:15:22.141Z,9.73
2023-11-01T00:20:23.998Z,9.84
2023-11-01T00:25:25.911Z,9.89
2023-11-01T00:30:27.874Z,9.88
2023-11-01T00:35:29.870Z,9.85
2023-11-01T00:40:32.369Z,9.75
2023-11-01T00:45:34.244Z,9.78
2023-11-01T00:50:36.105Z,9.68
2023-11-01T00:55:37.957Z,9.67
2023-11-01T01:00:39.793Z,9.74
2023-11-01T01:05:43.067Z,9.76
2023-11-01T01:10:44.989Z,9.90
2023-11-01T01:15:46.954Z,9.94
2023-11-01T01:20:49.444Z,9.96
2023-11-01T01:25:51.356Z,9.97
2023-11-01T01:30:53.187Z,10.00
2023-11-01T01:35:55.102Z,10.02
2023-11-01T01:40:56.960Z,10.07
2023-11-01T01:46:10.738Z,10.05
2023-11-01T01:51:13.664Z,10.07
2023-11-01T01:56:18.137Z,10.09
2023-11-01T02:01:29.200Z,10.08
2023-11-01T02:06:36.727Z,10.04
2023-11-01T02:11:38.585Z,9.97
2023-11-01T02:16:40.657Z,9.82
2023-11-01T02:21:42.616Z,9.73
2023-11-01T02:26:44.732Z,9.76
2023-11-01T02:31:46.544Z,9.81
2023-11-01T02:36:49.277Z,9.86
2023-11-01T02:41:51.387Z,9.89
2023-11-01T02:46:53.304Z,9.90
2023-11-01T02:51:55.126Z,9.89
2023-11-01T02:57:00.801Z,9.86
2023-11-01T03:02:02.670Z,9.87
2023-11-01T03:07:04.638Z,9.78
2023-11-01T03:12:06.812Z,9.67
2023-11-01T03:17:10.021Z,9.54
2023-11-01T03:22:11.909Z,9.39
2023-11-01T03:27:13.834Z,9.44
2023-11-01T03:32:15.908Z,9.41
2023-11-01T03:37:17.788Z,9.39
2023-11-01T03:42:22.253Z,9.52
2023-11-01T03:47:24.386Z,9.59
2023-11-01T03:52:27.580Z,9.56
2023-11-01T03:57:29.437Z,9.63
2023-11-01T04:02:32.544Z,9.63
2023-11-01T04:07:34.510Z,9.70
2023-11-01T04:12:36.569Z,9.82
2023-11-01T04:17:39.224Z,9.82
2023-11-01T04:22:41.092Z,9.85
2023-11-01T04:27:43.260Z,9.88
2023-11-01T04:32:45.331Z,9.87
2023-11-01T04:37:47.220Z,9.92
2023-11-01T04:42:49.226Z,9.86
2023-11-01T04:47:51.228Z,9.75
2023-11-01T04:52:53.661Z,9.67
2023-11-01T04:57:55.497Z,9.52
2023-11-01T05:02:57.483Z,9.49
2023-11-01T05:07:59.388Z,9.41
2023-11-01T05:13:01.221Z,9.35
2023-11-01T05:18:03.554Z,9.29
2023-11-01T05:23:05.529Z,9.18
2023-11-01T05:28:07.533Z,9.05
2023-11-01T05:33:09.427Z,8.99
2023-11-01T05:38:11.358Z,9.00
2023-11-01T05:43:13.188Z,9.15
2023-11-01T05:48:15.056Z,9.10
2023-11-01T05:53:16.952Z,8.98
2023-11-01T05:58:18.829Z,9.05
2023-11-01T06:03:21.347Z,8.99
2023-11-01T06:08:23.873Z,9.37
2023-11-01T06:13:25.744Z,9.46
2023-11-01T06:18:27.674Z,9.65
2023-11-01T06:23:29.633Z,9.77
2023-11-01T06:28:31.567Z,9.96
2023-11-01T06:33:33.548Z,10.01
2023-11-01T06:38:35.508Z,10.07
2023-11-01T06:43:37.499Z,10.10
2023-11-01T06:48:39.424Z,9.92
2023-11-01T06:53:41.492Z,9.77
2023-11-01T06:58:45.080Z,9.65
2023-11-01T07:03:47.062Z,9.64
2023-11-01T07:08:49.166Z,9.69
2023-11-01T07:13:51.144Z,9.63
2023-11-01T07:18:53.046Z,9.67
2023-11-01T07:23:54.962Z,9.70
2023-11-01T07:28:56.875Z,9.87
2023-11-01T07:33:58.725Z,9.98
2023-11-01T07:39:00.607Z,10.00
2023-11-01T07:44:02.531Z,10.13
2023-11-01T07:49:04.398Z,10.29
2023-11-01T07:54:06.408Z,10.48
2023-11-01T07:59:09.397Z,10.61
2023-11-01T08:04:11.406Z,10.75
2023-11-01T08:09:14.311Z,10.71
2023-11-01T08:14:16.160Z,10.63
2023-11-01T08:19:18.034Z,10.63
2023-11-01T08:24:19.990Z,10.79
2023-11-01T08:29:22.723Z,11.07
2023-11-01T08:34:24.627Z,11.19
2023-11-01T08:39:26.553Z,11.28
2023-11-01T08:44:28.425Z,11.44
2023-11-01T08:49:30.273Z,11.73
2023-11-01T08:54:33.261Z,11.94
2023-11-01T08:59:35.173Z,12.04
2023-11-01T09:04:37.094Z,12.06
2023-11-01T09:09:39.420Z,11.94
2023-11-01T09:14:41.719Z,11.95
2023-11-01T09:19:43.948Z,12.23
2023-11-01T09:24:45.775Z,12.41
2023-11-01T09:29:47.711Z,12.60
2023-11-01T09:34:52.103Z,12.59
2023-11-01T09:39:55.150Z,12.77
2023-11-01T09:44:58.609Z,12.86
2023-11-01T09:50:01.245Z,13.10
2023-11-01T09:55:05.847Z,13.66
2023-11-01T10:00:08.839Z,13.87
2023-11-01T10:05:10.740Z,13.53
2023-11-01T10:10:17.907Z,13.83
2023-11-01T10:15:21.238Z,14.14
2023-11-01T10:20:28.978Z,14.14
2023-11-01T10:25:30.954Z,14.08
2023-11-01T10:30:32.833Z,14.36
2023-11-01T10:35:35.403Z,14.52
2023-11-01T10:40:38.826Z,14.82
2023-11-01T10:45:40.711Z,14.70
2023-11-01T10:50:44.997Z,14.82
2023-11-01T10:55:46.925Z,14.89
2023-11-01T11:00:56.704Z,15.07
2023-11-01T11:05:59.689Z,15.14
2023-11-01T11:11:18.759Z,15.36
2023-11-01T11:16:22.374Z,15.11
2023-11-01T11:21:46.128Z,15.15
2023-11-01T11:26:48.092Z,15.17
2023-11-01T11:32:00.278Z,15.04
2023-11-01T11:37:07.681Z,14.77
2023-11-01T11:42:49.382Z,15.02
2023-11-01T11:47:51.451Z,15.46
2023-11-01T11:52:53.455Z,15.51
2023-11-01T11:57:55.350Z,15.17
2023-11-01T12:02:58.232Z,15.23
2023-11-01T12:08:02.412Z,15.67
2023-11-01T12:13:04.287Z,15.61
2023-11-01T12:18:13.264Z,15.55
2023-11-01T12:23:15.180Z,15.00
2023-11-01T12:28:21.781Z,14.78
2023-11-01T12:33:25.256Z,14.63
2023-11-01T12:38:27.177Z,14.94
2023-11-01T12:43:29.251Z,14.93
2023-11-01T12:48:31.237Z,14.59
2023-11-01T12:53:33.246Z,14.55
2023-11-01T12:58:37.696Z,14.69
2023-11-01T13:03:43.422Z,14.48
2023-11-01T13:08:45.467Z,14.78
2023-11-01T13:13:47.327Z,14.65
2023-11-01T13:18:49.270Z,14.59
2023-11-01T13:23:51.242Z,14.52
2023-11-01T13:28:53.127Z,14.41
2023-11-01T13:33:55.404Z,14.42
2023-11-01T13:38:57.293Z,14.38
2023-11-01T13:43:59.275Z,14.24
2023-11-01T13:49:01.126Z,14.29
2023-11-01T13:54:03.032Z,14.38
2023-11-01T13:59:05.037Z,14.43
2023-11-01T14:04:07.495Z,14.33
2023-11-01T14:09:12.639Z,14.22
2023-11-01T14:14:14.550Z,14.09
2023-11-01T14:19:16.464Z,13.98
2023-11-01T14:24:19.921Z,14.06
2023-11-01T14:29:22.200Z,14.04
2023-11-01T14:34:28.226Z,14.07
2023-11-01T14:39:30.100Z,13.91
2023-11-01T14:44:32.032Z,13.74
2023-11-01T14:49:34.125Z,13.53
2023-11-01T14:54:36.067Z,13.21
2023-11-01T14:59:37.977Z,12.92
2023-11-01T15:04:39.872Z,12.77
2023-11-01T15:09:41.732Z,12.81
2023-11-01T15:14:43.871Z,12.70
2023-11-01T15:19:46.898Z,12.43
2023-11-01T15:24:53.151Z,12.20
2023-11-01T15:29:55.034Z,12.08
2023-11-01T15:34:57.168Z,11.97
2023-11-01T15:40:01.952Z,11.68
2023-11-01T15:45:06.158Z,11.36
2023-11-01T15:50:08.253Z,10.97
2023-11-01T15:55:10.263Z,10.60
2023-11-01T16:00:13.124Z,10.24
2023-11-01T16:05:15.127Z,9.96
2023-11-01T16:10:17.019Z,9.79
2023-11-01T16:15:19.162Z,9.76
2023-11-01T16:20:21.088Z,9.78
2023-11-01T16:25:24.360Z,9.61
2023-11-01T16:30:26.387Z,9.62
2023-11-01T16:35:30.484Z,9.51
2023-11-01T16:40:32.315Z,9.23
2023-11-01T16:45:35.403Z,8.90
2023-11-01T16:50:37.360Z,8.66
2023-11-01T16:55:39.231Z,8.57
2023-11-01T17:00:41.183Z,8.56
2023-11-01T17:05:43.160Z,8.55
2023-11-01T17:10:45.068Z,8.47
2023-11-01T17:15:46.899Z,8.44
2023-11-01T17:20:48.744Z,8.46
2023-11-01T17:25:50.728Z,8.40
2023-11-01T17:30:54.043Z,8.32
2023-11-01T17:35:56.504Z,8.22
2023-11-01T17:40:59.591Z,8.20
2023-11-01T17:46:01.933Z,8.24
2023-11-01T17:51:04.068Z,8.18
2023-11-01T17:56:07.402Z,8.08
2023-11-01T18:01:09.263Z,7.97
2023-11-01T18:06:19.693Z,7.92
2023-11-01T18:11:22.861Z,7.92
2023-11-01T18:16:30.458Z,7.89
2023-11-01T18:21:35.015Z,7.96
2023-11-01T18:26:37.220Z,7.96
2023-11-01T18:31:49.725Z,7.87
2023-11-01T18:36:54.084Z,7.79
2023-11-01T18:41:56.768Z,7.73
2023-11-01T18:46:59.692Z,7.78
2023-11-01T18:52:02.005Z,7.85
2023-11-01T18:57:10.156Z,7.90
2023-11-01T19:02:33.941Z,7.99
2023-11-01T19:07:41.215Z,7.99
2023-11-01T19:12:43.608Z,7.97
2023-11-01T19:17:45.567Z,8.03
2023-11-01T19:22:47.893Z,8.09
2023-11-01T19:27:49.826Z,8.13
2023-11-01T19:32:51.723Z,8.16
2023-11-01T19:37:54.024Z,8.21
2023-11-01T19:42:56.282Z,8.20
2023-11-01T19:47:58.364Z,8.38
2023-11-01T19:53:00.639Z,8.65
2023-11-01T19:58:02.878Z,8.96
2023-11-01T20:03:06.516Z,9.22
2023-11-01T20:08:08.530Z,9.50
2023-11-01T20:13:10.447Z,9.91
2023-11-01T20:18:12.339Z,10.48
2023-11-01T20:23:15.649Z,10.52
2023-11-01T20:28:19.518Z,10.61
2023-11-01T20:33:21.474Z,10.74
2023-11-01T20:38:23.398Z,10.81
2023-11-01T20:43:25.231Z,10.57
2023-11-01T20:48:27.094Z,10.23
2023-11-01T20:53:29.580Z,9.96
2023-11-01T20:58:31.995Z,9.78
2023-11-01T21:03:33.941Z,9.67
2023-11-01T21:08:35.972Z,9.59
2023-11-01T21:13:37.938Z,9.61
2023-11-01T21:18:40.249Z,9.56
2023-11-01T21:23:42.863Z,9.52
2023-11-01T21:28:44.800Z,9.44
2023-11-01T21:33:46.869Z,9.40
2023-11-01T21:38:56.842Z,9.32
2023-11-01T21:44:02.226Z,9.21
2023-11-01T21:49:17.689Z,9.09
2023-11-01T21:54:27.364Z,8.93
2023-11-01T21:59:29.533Z,8.74
2023-11-01T22:04:36.453Z,8.67
2023-11-01T22:09:39.925Z,8.73
2023-11-01T22:14:42.114Z,8.81
2023-11-01T22:19:44.642Z,8.73
2023-11-01T22:24:46.466Z,8.64
2023-11-01T22:29:50.453Z,8.52
2023-11-01T22:34:54.004Z,8.52
2023-11-01T22:39:57.358Z,8.38
2023-11-01T22:45:02.669Z,8.14
2023-11-01T22:50:05.789Z,7.85
2023-11-01T22:55:08.117Z,7.58
2023-11-01T23:00:30.690Z,7.54
2023-11-01T23:05:32.831Z,7.51
2023-11-01T23:10:36.287Z,7.40
2023-11-01T23:15:38.376Z,7.25
2023-11-01T23:20:41.610Z,7.16
2023-11-01T23:25:43.475Z,7.12
2023-11-01T23:31:11.355Z,7.09
2023-11-01T23:36:19.933Z,6.98
2023-11-01T23:41:42.462Z,7.00
2023-11-01T23:46:44.987Z,6.93
2023-11-01T23:52:00.855Z,6.86
2023-11-01T23:57:03.446Z,6.72
